Terminal Aerodrome Forecast
Issued by NWS Jackson, MS

Current Version | Previous Version | Text Only | Print | Product List | Glossary On
Versions: 1 2 3 4 5 6 7 8 9 10 11 12 13
000
FTUS44 KJAN 271738
TAFHBG
TAF
KHBG 271738Z 2718/2818 00000KT P6SM SCT022
     FM271900 29004KT P6SM SCT250
     FM280900 16006KT P6SM OVC007=

USA.gov is the U.S. government's official web portal to all federal, state and local government web resources and services.